Time;durP1;ratioP1;P1;durP2;ratioP2;P2;SDS_P1;SDS_P2;PMS_P1;PMS_P2;Temp;Humidity;BMP_temperature;BMP_pressure;BME280_temperature;BME280_humidity;BME280_pressure;Samples;Min_cycle;Max_cycle;Signal;HPM_P1;HPM_P2
2022/04/19 00:00:34;;;;;;;10.30;6.20;;;5.90;99.90;;;;;;5072978;28;20566;-73
2022/04/19 00:03:02;;;;;;;10.00;6.27;;;5.80;99.90;;;;;;5072915;28;20206;-73
2022/04/19 00:05:29;;;;;;;8.80;6.20;;;5.70;99.90;;;;;;5073262;28;20202;-73
2022/04/19 00:07:56;;;;;;;10.00;6.20;;;5.40;99.90;;;;;;5073069;28;20563;-73
2022/04/19 00:10:23;;;;;;;10.47;6.20;;;5.20;99.90;;;;;;5073864;28;20202;-73
2022/04/19 00:12:49;;;;;;;8.97;6.00;;;5.50;99.90;;;;;;5074032;28;20230;-73
2022/04/19 00:15:17;;;;;;;10.17;6.40;;;5.70;99.90;;;;;;5073968;28;20202;-73
2022/04/19 00:17:44;;;;;;;9.27;6.20;;;5.70;99.90;;;;;;5073625;28;20213;-73
2022/04/19 00:20:11;;;;;;;9.77;6.23;;;5.60;99.90;;;;;;5073374;28;20583;-73
2022/04/19 00:22:39;;;;;;;10.93;6.40;;;5.50;99.90;;;;;;5073515;28;20619;-72
2022/04/19 00:25:07;;;;;;;10.57;6.30;;;5.70;99.90;;;;;;5073444;28;20206;-73
2022/04/19 00:27:34;;;;;;;10.30;6.80;;;5.40;99.90;;;;;;5074124;28;20210;-73
2022/04/19 00:30:01;;;;;;;8.50;5.93;;;5.40;99.90;;;;;;5072021;28;20205;-73
2022/04/19 00:32:29;;;;;;;8.57;5.63;;;5.20;99.90;;;;;;5053378;28;20227;-73
2022/04/19 00:34:56;;;;;;;10.73;6.70;;;5.00;99.90;;;;;;5054651;28;20205;-73
2022/04/19 00:37:23;;;;;;;10.50;6.50;;;5.10;99.90;;;;;;5053033;28;20249;-72
2022/04/19 00:39:50;;;;;;;8.93;5.90;;;5.00;99.90;;;;;;5060323;28;20194;-73
2022/04/19 00:42:18;;;;;;;10.33;6.13;;;5.00;99.90;;;;;;5053553;28;20230;-73
2022/04/19 00:44:45;;;;;;;12.07;6.77;;;4.90;99.90;;;;;;5054737;28;20261;-73
2022/04/19 00:47:15;;;;;;;11.80;6.67;;;4.90;99.90;;;;;;5060362;28;20613;-73
2022/04/19 00:49:43;;;;;;;10.67;6.07;;;5.20;99.90;;;;;;5072895;28;20561;-73
2022/04/19 00:52:11;;;;;;;10.70;6.10;;;5.20;99.90;;;;;;5072190;28;20198;-73
2022/04/19 00:54:38;;;;;;;8.40;5.90;;;5.20;99.90;;;;;;5062481;28;20222;-73
2022/04/19 00:57:05;;;;;;;10.17;6.20;;;5.20;99.90;;;;;;5070859;28;20221;-73
2022/04/19 00:59:33;;;;;;;9.27;6.63;;;5.00;99.90;;;;;;5071894;28;20202;-73
2022/04/19 01:02:00;;;;;;;9.10;5.60;;;5.00;99.90;;;;;;5072531;28;20328;-73
2022/04/19 01:04:28;;;;;;;11.57;6.83;;;5.40;99.90;;;;;;5072923;28;20284;-73
2022/04/19 01:06:57;;;;;;;10.47;6.70;;;5.50;99.90;;;;;;5072736;28;20206;-73
2022/04/19 01:09:24;;;;;;;11.80;6.93;;;5.50;99.90;;;;;;5072266;28;20214;-73
2022/04/19 01:14:37;;;;;;;12.40;7.73;;;5.60;99.90;;;;;;5071796;28;20217;-73
2022/04/19 01:17:06;;;;;;;13.00;8.13;;;5.10;99.90;;;;;;5071790;28;20649;-73
2022/04/19 01:19:35;;;;;;;9.90;7.13;;;4.90;99.90;;;;;;5072504;28;20672;-73
2022/04/19 01:22:04;;;;;;;13.00;8.27;;;4.90;99.90;;;;;;5072000;28;20202;-73
2022/04/19 01:24:31;;;;;;;12.17;7.53;;;5.00;99.90;;;;;;5072739;28;20293;-73
2022/04/19 01:26:58;;;;;;;11.83;7.40;;;5.10;99.90;;;;;;5072756;28;20206;-73
2022/04/19 01:29:27;;;;;;;13.60;7.90;;;5.10;99.90;;;;;;5070683;28;20214;-73
2022/04/19 01:31:55;;;;;;;13.17;7.67;;;4.90;99.90;;;;;;5071561;28;20210;-73
2022/04/19 01:34:22;;;;;;;13.03;7.40;;;5.00;99.90;;;;;;5072336;28;20588;-73
2022/04/19 01:36:49;;;;;;;11.00;7.33;;;4.80;99.90;;;;;;5072415;28;20206;-73
2022/04/19 01:39:17;;;;;;;12.47;7.53;;;4.90;99.90;;;;;;5071095;28;20202;-73
2022/04/19 01:41:45;;;;;;;11.87;7.80;;;4.80;99.90;;;;;;5072108;28;20210;-73
2022/04/19 01:44:15;;;;;;;11.27;7.47;;;4.90;99.90;;;;;;5071432;28;20209;-73
2022/04/19 01:46:41;;;;;;;11.63;7.77;;;4.70;99.90;;;;;;5071790;28;20296;-73
2022/04/19 01:49:08;;;;;;;13.33;7.70;;;4.70;99.90;;;;;;5071656;28;20224;-73
2022/04/19 01:51:37;;;;;;;11.43;7.33;;;4.70;99.90;;;;;;5072214;28;20198;-73
2022/04/19 01:54:04;;;;;;;12.77;7.97;;;4.70;99.90;;;;;;5071949;28;20308;-73
2022/04/19 01:56:33;;;;;;;12.90;7.47;;;4.80;99.90;;;;;;5071560;28;20217;-73
2022/04/19 01:59:00;;;;;;;12.93;7.90;;;4.80;99.90;;;;;;5064013;28;20711;-72
2022/04/19 02:01:26;;;;;;;13.73;8.10;;;4.80;99.90;;;;;;5068789;28;20256;-72
2022/04/19 02:03:53;;;;;;;11.70;7.80;;;4.90;99.90;;;;;;5071809;28;20198;-73
2022/04/19 02:06:20;;;;;;;12.90;7.73;;;4.90;99.90;;;;;;5069401;28;20222;-73
2022/04/19 02:08:47;;;;;;;12.20;7.73;;;4.80;99.90;;;;;;5066589;28;20199;-73
2022/04/19 02:11:14;;;;;;;10.67;7.17;;;4.80;99.90;;;;;;5055396;28;20195;-73
2022/04/19 02:13:42;;;;;;;13.13;7.90;;;4.80;99.90;;;;;;5067122;28;20217;-73
2022/04/19 02:16:09;;;;;;;10.53;6.80;;;4.80;99.90;;;;;;5051390;28;20200;-73
2022/04/19 02:18:36;;;;;;;11.30;6.83;;;4.80;99.90;;;;;;5058498;28;20627;-73
2022/04/19 02:21:03;;;;;;;12.27;7.07;;;4.80;99.90;;;;;;5070389;28;20198;-73
2022/04/19 02:23:30;;;;;;;10.27;6.33;;;4.80;99.90;;;;;;5071887;28;20293;-73
2022/04/19 02:25:57;;;;;;;11.43;6.70;;;4.60;99.90;;;;;;5066608;28;20191;-73
2022/04/19 02:28:24;;;;;;;10.43;6.70;;;4.50;99.90;;;;;;5071374;28;20206;-73
2022/04/19 02:30:52;;;;;;;11.93;7.20;;;4.50;99.90;;;;;;5057582;28;20203;-72
2022/04/19 02:33:19;;;;;;;11.13;6.40;;;4.50;99.90;;;;;;5061323;28;20228;-72
2022/04/19 02:35:46;;;;;;;12.13;7.70;;;4.40;99.90;;;;;;5071284;28;20572;-73
2022/04/19 02:38:13;;;;;;;12.53;7.03;;;4.30;99.90;;;;;;5054494;28;20199;-73
2022/04/19 02:40:40;;;;;;;11.77;7.17;;;4.40;99.90;;;;;;5054624;28;20551;-73
2022/04/19 02:43:07;;;;;;;13.57;7.03;;;4.40;99.90;;;;;;5071557;28;20676;-73
2022/04/19 02:45:34;;;;;;;11.80;7.53;;;4.40;99.90;;;;;;5067750;28;20198;-73
2022/04/19 02:48:03;;;;;;;12.73;7.30;;;4.60;99.90;;;;;;5053334;28;20202;-72
2022/04/19 02:50:31;;;;;;;13.10;7.30;;;4.80;99.90;;;;;;5052109;28;20610;-73
2022/04/19 02:52:58;;;;;;;13.57;7.50;;;4.90;99.90;;;;;;5061606;28;20638;-73
2022/04/19 02:55:24;;;;;;;11.43;7.07;;;4.90;99.90;;;;;;5067417;28;20194;-72
2022/04/19 02:57:51;;;;;;;14.40;8.10;;;4.90;99.90;;;;;;5055339;28;20452;-72
2022/04/19 03:00:18;;;;;;;14.07;8.10;;;4.70;99.90;;;;;;5070802;28;20213;-72
2022/04/19 03:02:46;;;;;;;13.50;7.10;;;4.80;99.90;;;;;;5071433;28;20301;-73
2022/04/19 03:05:14;;;;;;;10.70;6.43;;;4.70;99.90;;;;;;5075152;28;20656;-73
2022/04/19 03:07:41;;;;;;;10.13;6.50;;;4.60;99.90;;;;;;5069217;28;20199;-73
2022/04/19 03:10:09;;;;;;;12.00;6.57;;;4.50;99.90;;;;;;5061408;28;20290;-73
2022/04/19 03:12:36;;;;;;;12.03;6.97;;;4.20;99.90;;;;;;5065414;28;20566;-73
2022/04/19 03:15:03;;;;;;;11.77;7.17;;;4.00;99.90;;;;;;5058443;28;20242;-73
2022/04/19 03:17:29;;;;;;;11.13;6.83;;;4.00;99.90;;;;;;5067704;28;20203;-73
2022/04/19 03:19:56;;;;;;;11.50;7.03;;;3.90;99.90;;;;;;5069572;28;20289;-73
2022/04/19 03:27:41;;;;;;;13.30;7.13;;;3.90;99.90;;;;;;5064126;28;20311;-73
2022/04/19 03:27:56;;;;;;;12.20;7.10;;;3.80;99.90;;;;;;5060446;28;20778;-72
2022/04/19 03:30:23;;;;;;;12.27;6.87;;;3.80;99.90;;;;;;5056951;28;20615;-73
2022/04/19 03:32:53;;;;;;;12.17;7.03;;;3.60;99.90;;;;;;5072089;28;20205;-73
2022/04/19 03:35:19;;;;;;;12.70;7.20;;;3.80;99.90;;;;;;5056626;28;20562;-73
2022/04/19 03:37:48;;;;;;;11.20;6.60;;;3.70;99.90;;;;;;5072790;28;20214;-72
2022/04/19 03:40:15;;;;;;;12.27;7.50;;;3.50;99.90;;;;;;5071530;28;20207;-73
2022/04/19 03:42:42;;;;;;;11.93;6.70;;;3.50;99.90;;;;;;5069464;28;20206;-73
2022/04/19 03:45:10;;;;;;;14.37;7.60;;;3.40;99.90;;;;;;5063740;28;20194;-72
2022/04/19 03:47:37;;;;;;;11.83;7.63;;;3.50;99.90;;;;;;5060351;28;20210;-72
2022/04/19 03:50:04;;;;;;;11.43;6.90;;;3.30;99.90;;;;;;5072087;28;20202;-72
2022/04/19 03:52:32;;;;;;;12.93;7.53;;;3.30;99.90;;;;;;5054529;28;20199;-72
2022/04/19 03:55:00;;;;;;;12.07;7.10;;;3.30;99.90;;;;;;5069995;28;20218;-72
2022/04/19 03:57:27;;;;;;;11.83;7.23;;;3.20;99.90;;;;;;5073919;28;20680;-72
2022/04/19 03:59:54;;;;;;;13.60;7.93;;;3.40;99.90;;;;;;5054317;28;20195;-73
2022/04/19 04:02:21;;;;;;;12.70;7.53;;;3.50;99.90;;;;;;5055671;28;20203;-73
2022/04/19 04:04:48;;;;;;;10.93;6.93;;;3.60;99.90;;;;;;5074081;28;20202;-73
2022/04/19 04:07:15;;;;;;;12.67;7.70;;;3.60;99.90;;;;;;5073895;28;20557;-73
2022/04/19 04:09:41;;;;;;;11.90;6.97;;;3.50;99.90;;;;;;5073209;28;20198;-73
2022/04/19 04:12:12;;;;;;;14.93;7.93;;;3.60;99.90;;;;;;5072909;28;20305;-73
2022/04/19 04:14:39;;;;;;;14.73;7.50;;;3.80;99.90;;;;;;5073429;28;20221;-72
2022/04/19 04:17:07;;;;;;;13.20;7.90;;;4.00;99.90;;;;;;5073554;28;20214;-72
2022/04/19 04:19:34;;;;;;;12.30;7.63;;;3.90;99.90;;;;;;5073285;28;20290;-72
2022/04/19 04:22:00;;;;;;;16.33;8.33;;;3.90;99.90;;;;;;5072512;28;20206;-72
2022/04/19 04:24:27;;;;;;;14.73;8.10;;;4.30;99.90;;;;;;5070251;28;20206;-72
2022/04/19 04:26:54;;;;;;;13.30;8.23;;;4.50;99.90;;;;;;5054264;28;20191;-72
2022/04/19 04:29:23;;;;;;;13.73;8.70;;;4.40;99.90;;;;;;5072303;28;20263;-72
2022/04/19 04:31:49;;;;;;;13.33;8.10;;;4.40;99.90;;;;;;5072342;28;20256;-72
2022/04/19 04:34:16;;;;;;;12.63;7.80;;;4.50;99.90;;;;;;5073556;28;20772;-72
2022/04/19 04:36:43;;;;;;;14.70;8.00;;;4.30;99.90;;;;;;5071895;28;20217;-72
2022/04/19 04:39:10;;;;;;;11.93;7.80;;;4.30;99.90;;;;;;5063530;28;20569;-72
2022/04/19 04:41:37;;;;;;;13.33;7.90;;;4.10;99.90;;;;;;5072867;28;20207;-72
2022/04/19 04:44:04;;;;;;;13.77;7.93;;;4.10;99.90;;;;;;5073184;28;20202;-72
2022/04/19 04:52:01;;;;;;;12.47;7.77;;;4.00;99.90;;;;;;5059878;28;20205;-72
2022/04/19 04:54:28;;;;;;;13.50;8.30;;;4.10;99.90;;;;;;5073340;28;20228;-72
2022/04/19 04:56:54;;;;;;;15.70;9.57;;;4.20;99.90;;;;;;5073197;28;20209;-72
2022/04/19 04:59:21;;;;;;;13.17;8.47;;;4.10;99.90;;;;;;5072424;28;20217;-72
2022/04/19 05:01:50;;;;;;;14.30;8.40;;;4.10;99.90;;;;;;5072513;28;20292;-72
2022/04/19 05:04:16;;;;;;;14.27;7.67;;;4.10;99.90;;;;;;5072853;28;20213;-72
2022/04/19 05:06:43;;;;;;;11.90;8.47;;;4.20;99.90;;;;;;5072297;28;20208;-72
2022/04/19 05:09:10;;;;;;;14.93;7.87;;;4.30;99.90;;;;;;5071913;28;20523;-72
2022/04/19 05:11:37;;;;;;;14.20;8.13;;;4.60;99.90;;;;;;5072048;28;20216;-72
2022/04/19 05:14:04;;;;;;;12.90;8.80;;;4.80;99.90;;;;;;5071902;28;20215;-72
2022/04/19 05:16:31;;;;;;;10.40;6.90;;;4.90;99.90;;;;;;5072161;28;20210;-72
2022/04/19 05:18:59;;;;;;;10.53;7.20;;;5.00;99.90;;;;;;5073323;28;20202;-72
2022/04/19 05:21:26;;;;;;;14.30;8.47;;;5.20;99.90;;;;;;5071864;28;20202;-73
2022/04/19 05:23:52;;;;;;;15.00;7.83;;;5.50;99.90;;;;;;5072227;28;20565;-72
2022/04/19 05:26:19;;;;;;;10.57;7.20;;;5.60;99.90;;;;;;5072640;28;20300;-72
2022/04/19 05:28:46;;;;;;;12.10;7.53;;;6.00;99.90;;;;;;5072481;28;20206;-72
2022/04/19 05:31:13;;;;;;;10.63;7.10;;;6.10;99.90;;;;;;5060897;28;20203;-73
2022/04/19 05:33:40;;;;;;;10.10;7.17;;;6.00;99.90;;;;;;5056337;28;20244;-73
2022/04/19 05:36:08;;;;;;;9.27;6.97;;;6.10;99.90;;;;;;5070462;28;20551;-73
2022/04/19 05:38:35;;;;;;;10.90;6.40;;;6.30;99.90;;;;;;5068918;28;20206;-73
2022/04/19 05:41:01;;;;;;;10.27;6.00;;;7.00;99.90;;;;;;5068973;28;20588;-73
2022/04/19 05:43:28;;;;;;;8.67;5.70;;;7.70;99.90;;;;;;5068668;28;20210;-73
2022/04/19 05:45:57;;;;;;;10.63;5.97;;;7.50;99.90;;;;;;5069186;28;20195;-73
2022/04/19 05:48:23;;;;;;;9.43;6.03;;;6.80;99.90;;;;;;5067373;28;20224;-73
2022/04/19 05:50:51;;;;;;;10.73;5.83;;;6.80;99.90;;;;;;5069074;28;20220;-73
2022/04/19 05:53:20;;;;;;;8.93;6.20;;;6.70;99.90;;;;;;5057325;28;20199;-73
2022/04/19 05:55:46;;;;;;;10.97;6.30;;;6.50;99.90;;;;;;5060597;28;20541;-73
2022/04/19 05:58:14;;;;;;;11.67;6.27;;;7.30;99.90;;;;;;5065104;28;20206;-73
2022/04/19 06:00:41;;;;;;;9.97;6.10;;;8.10;99.90;;;;;;5070247;28;20202;-73
2022/04/19 06:05:53;;;;;;;8.47;5.97;;;7.80;99.90;;;;;;5070771;28;20208;-73
2022/04/19 06:08:21;;;;;;;9.70;6.10;;;9.00;99.90;;;;;;5059813;28;20206;-73
2022/04/19 06:10:49;;;;;;;9.70;6.30;;;8.40;99.90;;;;;;5066484;28;20213;-73
2022/04/19 06:13:16;;;;;;;7.53;5.80;;;7.60;99.90;;;;;;5063268;28;20212;-73
2022/04/19 06:15:43;;;;;;;10.17;6.40;;;7.30;99.90;;;;;;5064993;28;20229;-73
2022/04/19 06:18:10;;;;;;;10.23;6.00;;;7.30;99.90;;;;;;5060484;28;20269;-73
2022/04/19 06:20:37;;;;;;;10.13;6.07;;;7.80;99.90;;;;;;5062959;28;20210;-73
2022/04/19 06:23:04;;;;;;;11.07;6.83;;;8.00;99.90;;;;;;5068131;28;20209;-73
2022/04/19 06:25:32;;;;;;;8.63;6.03;;;8.90;99.90;;;;;;5067924;28;20206;-72
2022/04/19 06:27:59;;;;;;;10.70;6.47;;;9.40;96.10;;;;;;5059623;28;20211;-73
2022/04/19 06:30:26;;;;;;;9.73;6.13;;;9.70;92.20;;;;;;5058961;28;20207;-73
2022/04/19 06:32:53;;;;;;;10.30;6.67;;;9.20;96.50;;;;;;5064951;28;20210;-73
2022/04/19 06:35:21;;;;;;;8.40;5.97;;;9.80;92.60;;;;;;5061288;28;20234;-73
2022/04/19 06:37:48;;;;;;;8.90;6.40;;;9.60;90.70;;;;;;5068191;28;20199;-73
2022/04/19 06:40:15;;;;;;;9.30;6.43;;;9.10;94.10;;;;;;5064318;28;20202;-72
2022/04/19 06:42:44;;;;;;;8.43;6.07;;;8.90;94.10;;;;;;5070322;28;20202;-72
2022/04/19 06:45:12;;;;;;;8.27;6.13;;;9.20;91.20;;;;;;5069144;28;20244;-73
2022/04/19 06:47:39;;;;;;;9.67;6.23;;;9.10;90.90;;;;;;5068206;28;20285;-73
2022/04/19 06:50:07;;;;;;;9.13;5.93;;;8.90;90.60;;;;;;5066953;28;20638;-73
2022/04/19 06:52:34;;;;;;;9.77;5.70;;;9.40;85.50;;;;;;5065012;28;20226;-73
2022/04/19 06:55:01;;;;;;;7.33;5.37;;;9.70;78.90;;;;;;5071409;28;20218;-73
2022/04/19 06:57:28;;;;;;;8.53;5.50;;;9.40;79.00;;;;;;5072162;28;20211;-73
2022/04/19 06:59:57;;;;;;;8.33;5.47;;;9.20;84.00;;;;;;5063519;28;20248;-73
2022/04/19 07:02:24;;;;;;;6.20;4.90;;;9.30;82.10;;;;;;5068130;28;20217;-73
2022/04/19 07:04:51;;;;;;;7.93;5.50;;;9.30;69.60;;;;;;5073004;28;20201;-73
2022/04/19 07:07:18;;;;;;;7.47;5.23;;;9.50;69.40;;;;;;5070356;28;20202;-73
2022/04/19 07:09:45;;;;;;;6.97;5.30;;;9.40;77.10;;;;;;5070298;28;20216;-73
2022/04/19 07:12:12;;;;;;;7.47;4.90;;;9.50;78.70;;;;;;5075175;28;20214;-73
2022/04/19 07:14:39;;;;;;;6.67;4.73;;;9.40;63.40;;;;;;5071827;28;20698;-72
2022/04/19 07:17:09;;;;;;;8.47;5.00;;;10.30;65.30;;;;;;5058262;28;20203;-73
2022/04/19 07:27:45;;;;;;;6.43;4.43;;;9.00;72.00;;;;;;5075012;28;20277;-72
2022/04/19 07:30:13;;;;;;;6.13;4.53;;;8.90;75.10;;;;;;5068465;28;20195;-72
2022/04/19 07:32:42;;;;;;;6.83;4.57;;;8.90;76.60;;;;;;5068306;28;20267;-72
2022/04/19 07:35:10;;;;;;;8.07;4.33;;;9.00;76.80;;;;;;5074373;28;20206;-73
2022/04/19 07:37:37;;;;;;;5.90;4.30;;;9.20;73.30;;;;;;5058127;28;20204;-73
2022/04/19 07:40:05;;;;;;;8.10;5.00;;;9.90;75.30;;;;;;5071764;28;20202;-73
2022/04/19 07:42:32;;;;;;;6.20;4.63;;;9.60;70.10;;;;;;5056099;28;20203;-73
2022/04/19 07:44:59;;;;;;;7.20;4.77;;;9.80;74.50;;;;;;5059727;28;20645;-73
2022/04/19 07:47:26;;;;;;;4.53;3.37;;;9.80;65.70;;;;;;5074108;28;20625;-72
2022/04/19 07:49:57;;;;;;;5.37;3.50;;;9.80;54.30;;;;;;5068998;28;20203;-72
2022/04/19 07:52:24;;;;;;;4.10;3.57;;;9.70;43.60;;;;;;5053547;28;20206;-72
2022/04/19 07:54:50;;;;;;;5.33;3.03;;;9.90;47.00;;;;;;5057518;28;20744;-72
2022/04/19 07:57:19;;;;;;;7.20;3.33;;;10.00;42.20;;;;;;5072435;28;20789;-72
2022/04/19 07:59:46;;;;;;;3.73;3.00;;;10.10;42.40;;;;;;5070909;28;20711;-72
2022/04/19 08:02:13;;;;;;;5.13;3.27;;;10.30;42.40;;;;;;5054130;28;20203;-73
2022/04/19 08:04:40;;;;;;;4.83;4.10;;;10.00;37.20;;;;;;5072696;28;20213;-73
2022/04/19 08:07:09;;;;;;;5.63;3.70;;;10.20;42.30;;;;;;5070791;28;20199;-73
2022/04/19 08:09:35;;;;;;;4.70;3.03;;;10.10;40.50;;;;;;5066010;28;20203;-72
2022/04/19 08:12:02;;;;;;;3.27;2.70;;;10.20;38.40;;;;;;5073857;28;20570;-72
2022/04/19 08:14:29;;;;;;;4.63;3.00;;;10.10;30.10;;;;;;5072714;28;20202;-73
2022/04/19 08:16:56;;;;;;;6.47;3.30;;;10.20;31.70;;;;;;5073933;28;20198;-73
2022/04/19 08:19:23;;;;;;;4.20;3.37;;;10.20;33.60;;;;;;5072394;28;20672;-73
2022/04/19 08:21:51;;;;;;;3.63;2.90;;;10.10;29.90;;;;;;5073057;28;20202;-72
2022/04/19 08:24:19;;;;;;;5.07;3.10;;;10.30;28.30;;;;;;5073190;28;20205;-73
2022/04/19 08:26:47;;;;;;;5.63;2.93;;;10.30;30.50;;;;;;5073451;28;20260;-72
2022/04/19 08:29:14;;;;;;;5.60;3.30;;;10.70;32.70;;;;;;5073480;28;20672;-72
2022/04/19 08:31:41;;;;;;;4.07;3.23;;;10.40;27.80;;;;;;5072962;28;20209;-72
2022/04/19 08:34:07;;;;;;;4.37;3.07;;;10.40;27.60;;;;;;5063887;28;20242;-72
2022/04/19 08:36:35;;;;;;;3.23;2.77;;;10.40;28.70;;;;;;5054646;28;20207;-72
2022/04/19 08:39:02;;;;;;;5.03;3.50;;;10.60;24.90;;;;;;5062676;28;20199;-72
2022/04/19 08:41:30;;;;;;;4.30;3.40;;;10.80;29.70;;;;;;5063554;28;20286;-73
2022/04/19 08:43:57;;;;;;;5.30;3.40;;;10.90;27.90;;;;;;5064437;28;20642;-72
2022/04/19 08:46:27;;;;;;;4.27;3.37;;;10.90;30.40;;;;;;5053261;28;20207;-73
2022/04/19 08:48:59;;;;;;;4.17;3.20;;;10.70;26.80;;;;;;5070120;28;20645;-72
2022/04/19 08:51:29;;;;;;;3.63;3.20;;;10.90;27.30;;;;;;5073252;28;20307;-72
2022/04/19 08:59:30;;;;;;;3.50;3.00;;;11.40;27.10;;;;;;5072896;28;20277;-72
2022/04/19 09:01:57;;;;;;;5.13;3.10;;;11.50;23.30;;;;;;5072446;28;20206;-73
2022/04/19 09:04:25;;;;;;;4.23;3.00;;;11.70;24.10;;;;;;5072929;28;20794;-72
2022/04/19 09:06:54;;;;;;;4.40;2.80;;;12.30;23.00;;;;;;5073199;28;20202;-72
2022/04/19 09:09:25;;;;;;;5.20;2.90;;;11.90;16.10;;;;;;5072452;28;20206;-72
2022/04/19 09:11:54;;;;;;;5.63;3.20;;;12.50;16.80;;;;;;5073278;28;20214;-72
2022/04/19 09:14:23;;;;;;;4.10;2.70;;;12.70;15.10;;;;;;5071728;28;20201;-72
2022/04/19 09:17:03;;;;;;;5.70;3.37;;;12.80;10.60;;;;;;5071921;28;20237;-72
2022/04/19 09:19:30;;;;;;;3.63;2.70;;;13.20;13.80;;;;;;5067698;28;20202;-71
2022/04/19 09:21:58;;;;;;;4.40;2.60;;;13.30;3.80;;;;;;5072708;28;20202;-71
2022/04/19 09:24:26;;;;;;;3.10;2.63;;;13.30;2.80;;;;;;5072758;28;20202;-71
2022/04/19 09:26:55;;;;;;;3.07;2.60;;;12.90;2.50;;;;;;5057648;28;20282;-71
2022/04/19 09:29:23;;;;;;;4.00;2.70;;;13.10;4.00;;;;;;5071976;28;20198;-71
2022/04/19 09:31:52;;;;;;;3.80;2.70;;;13.40;5.40;;;;;;5072574;28;20669;-71
2022/04/19 09:34:28;;;;;;;4.17;2.70;;;13.50;4.10;;;;;;5070395;28;20198;-71
2022/04/19 09:37:06;;;;;;;4.70;2.83;;;13.30;1.00;;;;;;5059638;28;20222;-72
2022/04/19 09:39:34;;;;;;;4.00;2.63;;;13.80;4.00;;;;;;5067781;28;20202;-71
2022/04/19 09:42:05;;;;;;;5.70;2.73;;;13.70;4.50;;;;;;5064798;28;20198;-72
2022/04/19 09:44:36;;;;;;;2.90;2.50;;;13.80;4.00;;;;;;5064280;28;20250;-71
2022/04/19 09:47:04;;;;;;;2.90;2.63;;;13.50;3.50;;;;;;5064541;28;20197;-72
2022/04/19 09:49:45;;;;;;;3.73;2.47;;;13.20;1.00;;;;;;5067672;28;20208;-72
2022/04/19 09:52:33;;;;;;;3.70;2.30;;;13.30;1.00;;;;;;5057752;28;20927;-72
2022/04/19 09:55:01;;;;;;;2.63;2.40;;;13.30;1.00;;;;;;5064873;28;20617;-72
2022/04/19 09:57:31;;;;;;;3.27;2.53;;;13.60;1.00;;;;;;5061984;28;20256;-71
2022/04/19 10:00:00;;;;;;;5.90;2.60;;;13.40;1.00;;;;;;5067754;28;20538;-71
2022/04/19 10:10:42;;;;;;;4.70;2.70;;;13.30;1.00;;;;;;5049485;28;20286;-71
2022/04/19 10:13:10;;;;;;;5.60;2.67;;;13.60;1.00;;;;;;5071068;28;20203;-71
2022/04/19 10:15:38;;;;;;;3.97;2.70;;;13.70;1.40;;;;;;5070686;28;20218;-72
2022/04/19 10:18:05;;;;;;;3.47;2.83;;;14.00;1.50;;;;;;5071669;28;20297;-72
2022/04/19 10:20:35;;;;;;;5.50;3.07;;;13.90;1.00;;;;;;5071493;28;20206;-72
2022/04/19 10:23:04;;;;;;;4.67;3.10;;;13.50;1.00;;;;;;5070464;28;20297;-71
2022/04/19 10:25:43;;;;;;;3.83;2.97;;;14.00;2.30;;;;;;5071565;28;20204;-71
2022/04/19 10:28:13;;;;;;;3.80;2.80;;;13.70;1.00;;;;;;5070847;28;20206;-71
2022/04/19 10:30:47;;;;;;;6.10;3.70;;;13.90;3.30;;;;;;5070867;28;20591;-71
2022/04/19 10:33:49;;;;;;;4.97;3.93;;;13.90;1.20;;;;;;5053435;28;20217;-71
2022/04/19 10:36:21;;;;;;;4.93;3.33;;;14.00;1.00;;;;;;5071968;28;20221;-72
2022/04/19 10:39:22;;;;;;;5.87;4.67;;;14.00;1.00;;;;;;5066453;28;20541;-71
2022/04/19 10:41:52;;;;;;;5.63;3.90;;;13.90;1.00;;;;;;5056986;28;20228;-71
2022/04/19 10:44:36;;;;;;;7.10;3.90;;;14.00;1.00;;;;;;5051520;28;20199;-71
2022/04/19 10:47:15;;;;;;;9.07;4.33;;;14.40;2.30;;;;;;5056930;28;20606;-72
2022/04/19 10:50:02;;;;;;;6.37;4.00;;;14.10;1.00;;;;;;5069768;28;20195;-72
2022/04/19 10:52:51;;;;;;;7.03;4.60;;;14.40;1.00;;;;;;5071420;28;20320;-72
2022/04/19 10:55:30;;;;;;;7.37;4.63;;;14.20;2.90;;;;;;5055680;28;20675;-71
2022/04/19 10:58:20;;;;;;;7.53;4.33;;;14.00;1.00;;;;;;5067105;28;20202;-71
2022/04/19 11:00:53;;;;;;;7.70;4.83;;;14.60;1.00;;;;;;5071021;28;20210;-71
2022/04/19 11:03:28;;;;;;;6.97;3.70;;;14.40;1.00;;;;;;5066510;28;20203;-71
2022/04/19 11:05:57;;;;;;;6.13;4.03;;;14.60;1.00;;;;;;5051686;28;20201;-71
2022/04/19 11:08:33;;;;;;;4.90;3.40;;;14.30;1.00;;;;;;5054703;28;20719;-72
2022/04/19 11:11:23;;;;;;;5.17;4.03;;;14.30;1.00;;;;;;5071241;28;20208;-71
2022/04/19 11:14:36;;;;;;;7.43;3.73;;;14.90;1.00;;;;;;5068084;28;20234;-72
2022/04/19 11:17:29;;;;;;;7.10;4.43;;;15.00;1.00;;;;;;5051796;28;20227;-71
2022/04/19 11:19:58;;;;;;;5.97;3.90;;;14.40;1.00;;;;;;5059040;28;20614;-71
2022/04/19 11:22:29;;;;;;;4.60;3.43;;;14.80;1.00;;;;;;5053360;28;20210;-71
2022/04/19 11:25:04;;;;;;;3.27;2.90;;;14.80;1.00;;;;;;5058558;28;20214;-72
2022/04/19 11:28:09;;;;;;;3.87;2.70;;;14.50;1.00;;;;;;5055414;28;20210;-71
2022/04/19 11:30:37;;;;;;;4.90;2.90;;;15.20;1.00;;;;;;5066504;28;20205;-71
2022/04/19 11:33:08;;;;;;;6.60;3.03;;;15.00;1.00;;;;;;5072032;28;20700;-72
2022/04/19 11:35:35;;;;;;;4.80;3.10;;;14.90;1.00;;;;;;5066379;28;20285;-72
2022/04/19 11:38:08;;;;;;;3.77;2.63;;;15.20;1.00;;;;;;5055516;28;20260;-72
2022/04/19 11:49:05;;;;;;;6.57;2.73;;;15.40;1.00;;;;;;5064266;28;20285;-72
2022/04/19 11:51:35;;;;;;;4.50;2.90;;;15.40;1.00;;;;;;5073876;28;20206;-71
2022/04/19 11:54:02;;;;;;;2.70;2.37;;;15.40;1.00;;;;;;5069588;28;20206;-71
2022/04/19 11:56:29;;;;;;;4.00;2.90;;;15.60;1.00;;;;;;5053442;28;20241;-71
2022/04/19 11:58:59;;;;;;;4.00;2.80;;;15.20;1.00;;;;;;5069888;28;20209;-71
2022/04/19 12:01:26;;;;;;;5.97;2.60;;;15.20;1.00;;;;;;5073144;28;20206;-71
2022/04/19 12:03:53;;;;;;;4.67;2.70;;;15.20;1.00;;;;;;5065063;28;20203;-71
2022/04/19 12:06:23;;;;;;;4.40;2.90;;;15.60;1.00;;;;;;5053406;28;20265;-71
2022/04/19 12:08:51;;;;;;;5.30;2.90;;;15.10;1.00;;;;;;5066618;28;20198;-71
2022/04/19 12:11:21;;;;;;;4.83;3.00;;;15.70;1.00;;;;;;5073900;28;20554;-71
2022/04/19 12:13:49;;;;;;;4.30;2.70;;;16.00;1.00;;;;;;5064034;28;20293;-72
2022/04/19 12:16:29;;;;;;;2.97;2.63;;;15.10;1.00;;;;;;5054037;28;20219;-71
2022/04/19 12:18:57;;;;;;;3.55;2.90;;;15.70;1.00;;;;;;5070729;28;20285;-72
2022/04/19 12:21:38;;;;;;;4.33;3.17;;;15.50;1.00;;;;;;5073088;28;20264;-71
2022/04/19 12:24:07;;;;;;;5.60;2.80;;;15.40;1.00;;;;;;5072841;28;20205;-71
2022/04/19 12:26:34;;;;;;;3.37;2.60;;;15.50;1.00;;;;;;5073850;28;20611;-71
2022/04/19 12:29:12;;;;;;;2.83;2.50;;;15.40;1.00;;;;;;5071785;28;20511;-72
2022/04/19 12:31:41;;;;;;;4.33;2.80;;;15.30;1.00;;;;;;5073125;28;20198;-71
2022/04/19 12:34:09;;;;;;;5.50;3.10;;;15.80;1.00;;;;;;5068348;28;20288;-73
2022/04/19 12:36:45;;;;;;;5.33;3.00;;;15.40;1.00;;;;;;5073222;28;20214;-73
2022/04/19 12:39:12;;;;;;;4.77;3.10;;;15.60;1.00;;;;;;5072429;28;20206;-74
2022/04/19 12:41:43;;;;;;;5.60;3.03;;;15.30;1.00;;;;;;5073054;28;20202;-73
2022/04/19 12:44:11;;;;;;;4.07;3.20;;;15.60;1.00;;;;;;5073371;28;20653;-73
2022/04/19 12:46:45;;;;;;;5.53;3.33;;;15.50;1.00;;;;;;5073023;28;20198;-73
2022/04/19 12:49:23;;;;;;;3.27;2.97;;;15.30;1.00;;;;;;5073210;28;20210;-73
2022/04/19 12:52:03;;;;;;;4.90;2.60;;;15.60;1.00;;;;;;5063322;28;20656;-73
2022/04/19 12:54:30;;;;;;;3.40;2.28;;;15.80;1.00;;;;;;5073411;28;20210;-73
2022/04/19 12:57:01;;;;;;;4.23;2.60;;;15.60;1.00;;;;;;5058998;28;20229;-73
2022/04/19 12:59:28;;;;;;;2.67;2.10;;;15.30;1.00;;;;;;5072423;28;20271;-73
2022/04/19 13:01:55;;;;;;;3.10;2.37;;;15.40;1.00;;;;;;5073185;28;20202;-73
2022/04/19 13:04:22;;;;;;;2.57;2.20;;;15.50;1.00;;;;;;5055833;28;20241;-74
2022/04/19 13:12:19;;;;;;;4.17;2.00;;;15.60;1.00;;;;;;5029995;28;20202;-74
2022/04/19 13:14:48;;;;;;;2.23;1.83;;;15.40;1.00;;;;;;5061663;28;20694;-74
2022/04/19 13:17:15;;;;;;;3.17;2.30;;;15.30;1.00;;;;;;5072104;28;20214;-73
2022/04/19 13:19:42;;;;;;;2.47;2.17;;;15.60;1.00;;;;;;5072440;28;20195;-74
2022/04/19 13:22:09;;;;;;;2.87;1.93;;;15.70;1.00;;;;;;5072354;28;20657;-74
2022/04/19 13:24:38;;;;;;;2.10;1.90;;;15.60;1.00;;;;;;5056712;28;20201;-74
2022/04/19 13:27:07;;;;;;;3.17;1.80;;;15.70;1.00;;;;;;5064099;28;20194;-74
2022/04/19 13:29:34;;;;;;;4.50;2.10;;;15.60;1.00;;;;;;5055217;28;20206;-74
2022/04/19 13:32:01;;;;;;;1.97;1.63;;;15.50;1.00;;;;;;5056510;28;20213;-74
2022/04/19 13:34:28;;;;;;;3.60;2.17;;;15.60;1.00;;;;;;5072004;28;20206;-74
2022/04/19 13:36:57;;;;;;;2.33;1.90;;;15.60;1.00;;;;;;5061346;28;20214;-74
2022/04/19 13:39:24;;;;;;;2.00;1.90;;;15.70;1.00;;;;;;5071425;28;20210;-74
2022/04/19 13:41:53;;;;;;;2.30;2.00;;;15.40;1.00;;;;;;5043229;28;20209;-73
2022/04/19 13:44:20;;;;;;;3.23;1.80;;;15.40;1.00;;;;;;5061584;28;20202;-74
2022/04/19 13:46:48;;;;;;;3.50;2.10;;;15.50;1.00;;;;;;5064244;28;20191;-74
2022/04/19 13:49:17;;;;;;;2.70;1.90;;;15.80;1.00;;;;;;5067937;28;20293;-74